Time;durP1;ratioP1;P1;durP2;ratioP2;P2;SDS_P1;SDS_P2;PMS_P1;PMS_P2;Temp;Humidity;BMP_temperature;BMP_pressure;BME280_temperature;BME280_humidity;BME280_pressure;Samples;Min_cycle;Max_cycle;Signal;HPM_P1;HPM_P2
2023/03/23 00:00:55;;;;;;;;;25.00;25.00;;;;;;;;117555;1186;24742;-66
2023/03/23 00:03:26;;;;;;;;;26.00;20.00;;;;;;;;117568;1181;25295;-65
2023/03/23 00:05:59;;;;;;;;;30.00;25.00;;;;;;;;117423;1191;25599;-65
2023/03/23 00:08:26;;;;;;;;;30.33;27.33;;;;;;;;117590;1193;25261;-66
2023/03/23 00:10:56;;;;;;;;;22.00;20.00;;;;;;;;117621;1180;26713;-68
2023/03/23 00:13:24;;;;;;;;;27.50;22.50;;;;;;;;117508;1184;25452;-67
2023/03/23 00:15:52;;;;;;;;;24.00;24.00;;;;;;;;117686;1180;25493;-66
2023/03/23 00:18:23;;;;;;;;;24.50;21.50;;;;;;;;117644;1180;25400;-66
2023/03/23 00:20:52;;;;;;;;;28.50;22.00;;;;;;;;117585;1193;25183;-66
2023/03/23 00:23:22;;;;;;;;;27.25;21.50;;;;;;;;117532;1183;25270;-66
2023/03/23 00:25:57;;;;;;;;;28.00;24.00;;;;;;;;117608;1180;24708;-65
2023/03/23 00:28:26;;;;;;;;;26.00;21.67;;;;;;;;117550;1180;25666;-66
2023/03/23 00:30:59;;;;;;;;;24.00;22.00;;;;;;;;117523;1184;25329;-65
2023/03/23 00:33:29;;;;;;;;;30.00;23.50;;;;;;;;117360;1193;24951;-66
2023/03/23 00:35:56;;;;;;;;;31.00;26.50;;;;;;;;117589;1180;25128;-66
2023/03/23 00:38:24;;;;;;;;;26.00;23.00;;;;;;;;117580;1193;24849;-66
2023/03/23 00:40:51;;;;;;;;;27.50;24.00;;;;;;;;117701;1180;24739;-67
2023/03/23 00:43:19;;;;;;;;;27.50;25.50;;;;;;;;117526;1184;25064;-65
2023/03/23 00:45:52;;;;;;;;;29.50;26.50;;;;;;;;117607;1182;24869;-67
2023/03/23 00:48:20;;;;;;;;;31.00;23.00;;;;;;;;117666;1181;25250;-69
2023/03/23 00:50:49;;;;;;;;;34.00;25.00;;;;;;;;117667;1180;25123;-66
2023/03/23 00:53:16;;;;;;;;;31.00;25.00;;;;;;;;117733;1180;25472;-67
2023/03/23 00:55:45;;;;;;;;;35.33;27.67;;;;;;;;117670;1180;24940;-66
2023/03/23 00:58:13;;;;;;;;;24.00;24.00;;;;;;;;117588;1193;25461;-66
2023/03/23 01:00:40;;;;;;;;;32.00;27.00;;;;;;;;117695;1180;25886;-66
2023/03/23 01:03:12;;;;;;;;;28.00;26.50;;;;;;;;117716;1185;25158;-66
2023/03/23 01:05:39;;;;;;;;;26.50;23.00;;;;;;;;117572;1193;24798;-66
2023/03/23 01:08:06;;;;;;;;;24.67;22.33;;;;;;;;117584;1181;25014;-67
2023/03/23 01:10:34;;;;;;;;;31.00;28.00;;;;;;;;117685;1187;24744;-66
2023/03/23 01:13:01;;;;;;;;;30.00;23.00;;;;;;;;117698;1181;25218;-66
2023/03/23 01:15:29;;;;;;;;;33.00;25.50;;;;;;;;117657;1180;25441;-66
2023/03/23 01:17:57;;;;;;;;;28.00;23.00;;;;;;;;117710;1180;24947;-65
2023/03/23 01:20:26;;;;;;;;;28.00;23.00;;;;;;;;117540;1183;25560;-66
2023/03/23 01:22:59;;;;;;;;;29.50;24.50;;;;;;;;117798;1181;25265;-66
2023/03/23 01:25:32;;;;;;;;;24.50;21.50;;;;;;;;117512;1180;24896;-67
2023/03/23 01:27:59;;;;;;;;;24.00;22.00;;;;;;;;117699;1181;25327;-66
2023/03/23 01:30:26;;;;;;;;;20.00;19.00;;;;;;;;117490;1193;24893;-67
2023/03/23 01:32:55;;;;;;;;;26.00;23.50;;;;;;;;117774;1180;25792;-66
2023/03/23 01:35:22;;;;;;;;;23.00;20.00;;;;;;;;117519;1193;25197;-66
2023/03/23 01:37:49;;;;;;;;;22.00;20.00;;;;;;;;117822;1180;25584;-67
2023/03/23 01:40:17;;;;;;;;;24.50;19.00;;;;;;;;117811;1180;25221;-67
2023/03/23 01:42:44;;;;;;;;;29.00;22.00;;;;;;;;117862;1180;25269;-66
2023/03/23 01:45:25;;;;;;;;;23.00;19.00;;;;;;;;117830;1180;26369;-66
2023/03/23 01:48:00;;;;;;;;;28.00;23.00;;;;;;;;117776;1180;25317;-66
2023/03/23 01:50:30;;;;;;;;;22.50;19.50;;;;;;;;117809;1180;25476;-69
2023/03/23 01:52:59;;;;;;;;;26.50;21.50;;;;;;;;117843;1180;25140;-66
2023/03/23 01:55:27;;;;;;;;;25.00;22.00;;;;;;;;117501;1183;24748;-66
2023/03/23 01:57:55;;;;;;;;;27.50;23.50;;;;;;;;117512;1182;24848;-65
2023/03/23 02:00:24;;;;;;;;;14.00;13.50;;;;;;;;117448;1183;24881;-66
2023/03/23 02:02:52;;;;;;;;;25.00;22.50;;;;;;;;117519;1183;24775;-66
2023/03/23 02:05:49;;;;;;;;;23.00;20.00;;;;;;;;117875;1193;25597;-66
2023/03/23 02:08:18;;;;;;;;;18.00;16.00;;;;;;;;117723;1181;25638;-66
2023/03/23 02:10:45;;;;;;;;;23.50;19.50;;;;;;;;117526;1184;24928;-66
2023/03/23 02:13:13;;;;;;;;;20.00;18.00;;;;;;;;117874;1193;25207;-66
2023/03/23 02:16:04;;;;;;;;;27.00;21.67;;;;;;;;117504;1181;25126;-66
2023/03/23 02:18:44;;;;;;;;;24.00;20.00;;;;;;;;117832;1186;25627;-66
2023/03/23 02:21:35;;;;;;;;;23.33;22.00;;;;;;;;117840;1193;25582;-66
2023/03/23 02:24:26;;;;;;;;;23.50;20.50;;;;;;;;117824;1190;25602;-66
2023/03/23 02:27:00;;;;;;;;;23.67;17.33;;;;;;;;117802;1181;26260;-66
2023/03/23 02:29:38;;;;;;;;;22.50;19.25;;;;;;;;117837;1180;24745;-65
2023/03/23 02:32:49;;;;;;;;;18.67;18.67;;;;;;;;117830;1181;25473;-65
2023/03/23 02:35:24;;;;;;;;;25.00;22.00;;;;;;;;117292;1189;25098;-66
2023/03/23 02:37:58;;;;;;;;;24.00;21.00;;;;;;;;117338;1196;24796;-66
2023/03/23 02:40:31;;;;;;;;;19.00;14.50;;;;;;;;117533;1180;25319;-66
2023/03/23 02:42:59;;;;;;;;;20.50;19.00;;;;;;;;117523;1193;25101;-66
2023/03/23 02:45:28;;;;;;;;;22.00;18.00;;;;;;;;117751;1187;25137;-66
2023/03/23 02:47:56;;;;;;;;;21.00;20.33;;;;;;;;117547;1183;25571;-66
2023/03/23 02:50:25;;;;;;;;;16.00;12.33;;;;;;;;117544;1183;25204;-68
2023/03/23 02:52:54;;;;;;;;;18.00;16.00;;;;;;;;117672;1180;25585;-66
2023/03/23 02:55:25;;;;;;;;;23.50;21.00;;;;;;;;117463;1180;24741;-66
2023/03/23 02:57:53;;;;;;;;;22.50;18.50;;;;;;;;117376;1194;25512;-65
2023/03/23 03:00:21;;;;;;;;;27.00;22.00;;;;;;;;117423;1181;25424;-65
2023/03/23 03:02:54;;;;;;;;;18.00;16.67;;;;;;;;117416;1180;25301;-67
2023/03/23 03:05:31;;;;;;;;;19.50;17.00;;;;;;;;117405;1194;24848;-67
2023/03/23 03:08:12;;;;;;;;;24.00;19.00;;;;;;;;117437;1191;25136;-66
2023/03/23 03:11:01;;;;;;;;;17.00;16.00;;;;;;;;117466;1181;25323;-66
2023/03/23 03:13:47;;;;;;;;;23.33;18.33;;;;;;;;117630;1180;24883;-66
2023/03/23 03:16:25;;;;;;;;;20.75;17.75;;;;;;;;117817;1186;24911;-66
2023/03/23 03:19:07;;;;;;;;;14.00;13.00;;;;;;;;117808;1182;25058;-66
2023/03/23 03:21:37;;;;;;;;;25.33;22.67;;;;;;;;117452;1193;25484;-65
2023/03/23 03:24:07;;;;;;;;;21.00;18.00;;;;;;;;117482;1183;25645;-65
2023/03/23 03:26:35;;;;;;;;;21.00;21.00;;;;;;;;117500;1183;25495;-65
2023/03/23 03:29:02;;;;;;;;;24.00;19.33;;;;;;;;117467;1183;25521;-65
2023/03/23 03:31:33;;;;;;;;;21.00;17.00;;;;;;;;117827;1181;25230;-65
2023/03/23 03:34:01;;;;;;;;;22.67;20.67;;;;;;;;117833;1180;25254;-64
2023/03/23 03:36:37;;;;;;;;;24.00;20.50;;;;;;;;117458;1193;25032;-64
2023/03/23 03:39:07;;;;;;;;;23.50;21.00;;;;;;;;117503;1183;25182;-65
2023/03/23 03:41:35;;;;;;;;;18.00;17.00;;;;;;;;117822;1180;25513;-65
2023/03/23 03:44:05;;;;;;;;;27.33;19.33;;;;;;;;117417;1181;25496;-65
2023/03/23 03:46:33;;;;;;;;;20.00;19.00;;;;;;;;117492;1184;25189;-69
2023/03/23 03:49:02;;;;;;;;;23.00;17.33;;;;;;;;117488;1193;25303;-69
2023/03/23 03:51:30;;;;;;;;;23.33;21.33;;;;;;;;117467;1183;24898;-66
2023/03/23 03:53:58;;;;;;;;;22.00;20.00;;;;;;;;117846;1187;25368;-65
2023/03/23 03:56:26;;;;;;;;;28.50;21.00;;;;;;;;117710;1193;25334;-65
2023/03/23 03:58:53;;;;;;;;;32.00;24.00;;;;;;;;117750;1186;25647;-65
2023/03/23 04:01:22;;;;;;;;;18.00;17.00;;;;;;;;117819;1187;24881;-65
2023/03/23 04:03:50;;;;;;;;;29.67;25.00;;;;;;;;117650;1191;24939;-65
2023/03/23 04:06:18;;;;;;;;;21.67;19.00;;;;;;;;117563;1183;24966;-66
2023/03/23 04:08:46;;;;;;;;;24.00;20.00;;;;;;;;117797;1193;24775;-66
2023/03/23 04:11:14;;;;;;;;;27.00;24.00;;;;;;;;117795;1180;25567;-65
2023/03/23 04:13:41;;;;;;;;;24.00;23.00;;;;;;;;117845;1180;24927;-65
2023/03/23 04:16:09;;;;;;;;;23.00;20.67;;;;;;;;117782;1180;26177;-65
2023/03/23 04:18:36;;;;;;;;;25.00;20.00;;;;;;;;117771;1180;25363;-65
2023/03/23 04:21:07;;;;;;;;;26.50;22.00;;;;;;;;117767;1180;24848;-65
2023/03/23 04:23:35;;;;;;;;;20.67;18.00;;;;;;;;117498;1183;25127;-64
2023/03/23 04:26:03;;;;;;;;;16.50;14.50;;;;;;;;117511;1181;25487;-64
2023/03/23 04:28:33;;;;;;;;;16.50;13.50;;;;;;;;117806;1181;25096;-60
2023/03/23 04:31:01;;;;;;;;;19.00;15.00;;;;;;;;117824;1180;24855;-60
2023/03/23 04:33:29;;;;;;;;;22.50;20.50;;;;;;;;117801;1189;24907;-60
2023/03/23 04:36:00;;;;;;;;;17.00;16.33;;;;;;;;117795;1193;25603;-61
2023/03/23 04:38:29;;;;;;;;;19.50;18.50;;;;;;;;117817;1193;25601;-60
2023/03/23 04:40:56;;;;;;;;;20.67;19.00;;;;;;;;117478;1183;25367;-62
2023/03/23 04:43:24;;;;;;;;;25.67;20.00;;;;;;;;117799;1181;24813;-59
2023/03/23 04:45:58;;;;;;;;;24.67;22.33;;;;;;;;117786;1180;25428;-59
2023/03/23 04:48:28;;;;;;;;;19.00;17.50;;;;;;;;117429;1180;25282;-62
2023/03/23 04:50:57;;;;;;;;;20.00;18.50;;;;;;;;117510;1193;25625;-63
2023/03/23 04:53:24;;;;;;;;;22.50;19.00;;;;;;;;117795;1180;25506;-62
2023/03/23 04:55:51;;;;;;;;;23.50;18.50;;;;;;;;117804;1193;25298;-63
2023/03/23 04:58:19;;;;;;;;;21.00;18.00;;;;;;;;117430;1193;26508;-63
2023/03/23 05:04:59;;;;;;;;;24.50;23.00;;;;;;;;118412;1183;25638;-62
2023/03/23 05:07:26;;;;;;;;;33.00;30.67;;;;;;;;117485;1190;25840;-62
2023/03/23 05:09:54;;;;;;;;;36.50;32.00;;;;;;;;117716;1181;26242;-61
2023/03/23 05:12:21;;;;;;;;;37.00;32.50;;;;;;;;117735;1188;25565;-61
2023/03/23 05:14:49;;;;;;;;;38.00;31.67;;;;;;;;117676;1180;25728;-62
2023/03/23 05:17:16;;;;;;;;;34.00;30.00;;;;;;;;117436;1183;25015;-62
2023/03/23 05:19:47;;;;;;;;;36.33;33.00;;;;;;;;117463;1193;25927;-62
2023/03/23 05:22:14;;;;;;;;;23.00;22.00;;;;;;;;117659;1187;25369;-62
2023/03/23 05:24:42;;;;;;;;;43.00;34.00;;;;;;;;117461;1191;25249;-63
2023/03/23 05:27:10;;;;;;;;;43.50;34.00;;;;;;;;117739;1180;24899;-63
2023/03/23 05:29:40;;;;;;;;;33.00;30.50;;;;;;;;117460;1183;24697;-63
2023/03/23 05:32:08;;;;;;;;;34.00;30.50;;;;;;;;117780;1193;24920;-62
2023/03/23 05:34:35;;;;;;;;;29.33;27.67;;;;;;;;117739;1193;26420;-62
2023/03/23 05:37:03;;;;;;;;;33.00;31.00;;;;;;;;117465;1184;25406;-62
2023/03/23 05:39:32;;;;;;;;;34.00;30.00;;;;;;;;117482;1183;25423;-62
2023/03/23 05:41:59;;;;;;;;;38.00;29.00;;;;;;;;117499;1182;26248;-62
2023/03/23 05:44:26;;;;;;;;;33.00;27.50;;;;;;;;117624;1181;25595;-62
2023/03/23 05:46:53;;;;;;;;;29.00;26.00;;;;;;;;117779;1187;25641;-63
2023/03/23 05:49:21;;;;;;;;;32.67;28.67;;;;;;;;117721;1180;25640;-63
2023/03/23 05:51:51;;;;;;;;;35.50;32.00;;;;;;;;117752;1180;25512;-63
2023/03/23 05:54:19;;;;;;;;;34.50;31.00;;;;;;;;117788;1180;25097;-63
2023/03/23 05:56:46;;;;;;;;;43.50;32.50;;;;;;;;117767;1180;26426;-62
2023/03/23 05:59:13;;;;;;;;;43.00;33.50;;;;;;;;117804;1180;25112;-60
2023/03/23 06:01:41;;;;;;;;;45.50;37.00;;;;;;;;117760;1180;24902;-60
2023/03/23 06:04:09;;;;;;;;;51.00;39.00;;;;;;;;117743;1180;24865;-62
2023/03/23 06:06:36;;;;;;;;;46.00;36.50;;;;;;;;117771;1187;24752;-63
2023/03/23 06:09:03;;;;;;;;;46.00;33.00;;;;;;;;117620;1193;26105;-64
2023/03/23 06:11:31;;;;;;;;;34.00;26.00;;;;;;;;117783;1190;25371;-64
2023/03/23 06:13:58;;;;;;;;;43.00;31.00;;;;;;;;117778;1193;26196;-64
2023/03/23 06:16:25;;;;;;;;;37.50;31.00;;;;;;;;117769;1180;25374;-62
2023/03/23 06:18:52;;;;;;;;;35.00;29.00;;;;;;;;117683;1180;25348;-62
2023/03/23 06:21:21;;;;;;;;;39.00;31.00;;;;;;;;117684;1181;25023;-61
2023/03/23 06:23:49;;;;;;;;;33.00;31.67;;;;;;;;117600;1193;25190;-63
2023/03/23 06:26:18;;;;;;;;;35.00;32.00;;;;;;;;117601;1181;24830;-63
2023/03/23 06:28:45;;;;;;;;;33.00;28.00;;;;;;;;117682;1193;24812;-63
2023/03/23 06:31:14;;;;;;;;;35.33;29.67;;;;;;;;117423;1193;25027;-63
2023/03/23 06:33:41;;;;;;;;;36.00;30.33;;;;;;;;117774;1180;25536;-63
2023/03/23 06:36:11;;;;;;;;;33.00;27.00;;;;;;;;117782;1193;25063;-63
2023/03/23 06:38:38;;;;;;;;;36.00;27.50;;;;;;;;117737;1180;25136;-63
2023/03/23 06:41:06;;;;;;;;;34.33;22.33;;;;;;;;117727;1192;25562;-63
2023/03/23 06:43:33;;;;;;;;;43.50;32.00;;;;;;;;117468;1184;25076;-61
2023/03/23 06:46:01;;;;;;;;;31.00;27.00;;;;;;;;117772;1180;25341;-59
2023/03/23 06:48:28;;;;;;;;;33.00;27.50;;;;;;;;117796;1180;25267;-60
2023/03/23 06:50:55;;;;;;;;;22.00;17.33;;;;;;;;117761;1180;24966;-63
2023/03/23 06:57:20;;;;;;;;;33.50;29.00;;;;;;;;118062;1173;25536;-61
2023/03/23 06:59:47;;;;;;;;;28.00;21.00;;;;;;;;117403;1182;25067;-62
2023/03/23 07:02:15;;;;;;;;;33.00;26.50;;;;;;;;117363;1189;24964;-61
2023/03/23 07:04:42;;;;;;;;;35.50;27.00;;;;;;;;117406;1180;25243;-61
2023/03/23 07:07:10;;;;;;;;;38.67;31.00;;;;;;;;117369;1186;25303;-61
2023/03/23 07:09:38;;;;;;;;;33.50;26.00;;;;;;;;117567;1194;25009;-61
2023/03/23 07:12:05;;;;;;;;;30.00;26.00;;;;;;;;117400;1193;25456;-61
2023/03/23 07:14:33;;;;;;;;;36.00;26.50;;;;;;;;117451;1191;25387;-64
2023/03/23 07:17:01;;;;;;;;;36.50;27.00;;;;;;;;117490;1182;25444;-69
2023/03/23 07:19:28;;;;;;;;;22.00;20.00;;;;;;;;117449;1182;24960;-66
2023/03/23 07:21:56;;;;;;;;;38.50;29.50;;;;;;;;117406;1182;26215;-61
2023/03/23 07:24:24;;;;;;;;;30.50;25.00;;;;;;;;117354;1194;25334;-59
2023/03/23 07:26:51;;;;;;;;;30.00;25.00;;;;;;;;117393;1184;25003;-59
2023/03/23 07:29:18;;;;;;;;;33.33;23.00;;;;;;;;117396;1189;25796;-59
2023/03/23 07:31:46;;;;;;;;;36.50;28.50;;;;;;;;117375;1180;24844;-59
2023/03/23 07:34:13;;;;;;;;;41.00;30.00;;;;;;;;117400;1183;24810;-60
2023/03/23 07:36:41;;;;;;;;;26.00;17.00;;;;;;;;117381;1180;25109;-60
2023/03/23 07:39:08;;;;;;;;;34.00;29.00;;;;;;;;117394;1193;24786;-60
2023/03/23 07:41:35;;;;;;;;;37.00;31.00;;;;;;;;117370;1184;25175;-60
2023/03/23 07:44:03;;;;;;;;;43.00;31.00;;;;;;;;117396;1182;25136;-60
2023/03/23 07:46:30;;;;;;;;;35.00;29.50;;;;;;;;117410;1193;25089;-60
2023/03/23 07:48:58;;;;;;;;;40.00;30.00;;;;;;;;117446;1191;24917;-62
2023/03/23 07:51:26;;;;;;;;;43.00;32.00;;;;;;;;117441;1181;25636;-61
2023/03/23 07:53:53;;;;;;;;;32.00;30.00;;;;;;;;117420;1193;25425;-61
2023/03/23 07:56:20;;;;;;;;;30.50;24.50;;;;;;;;117414;1180;25213;-59
2023/03/23 07:58:49;;;;;;;;;39.50;32.00;;;;;;;;117458;1181;25715;-58
2023/03/23 08:01:16;;;;;;;;;39.00;30.00;;;;;;;;117432;1180;25219;-62
2023/03/23 08:03:44;;;;;;;;;43.00;30.00;;;;;;;;117322;1194;25308;-61
2023/03/23 08:06:11;;;;;;;;;35.50;30.00;;;;;;;;117397;1189;25134;-61
2023/03/23 08:08:40;;;;;;;;;38.00;30.50;;;;;;;;117395;1181;25501;-61
2023/03/23 08:11:07;;;;;;;;;38.00;32.00;;;;;;;;117389;1181;24939;-61
2023/03/23 08:13:35;;;;;;;;;43.00;30.50;;;;;;;;117375;1186;24903;-60
2023/03/23 08:16:03;;;;;;;;;38.50;27.00;;;;;;;;117363;1181;25170;-61
2023/03/23 08:18:31;;;;;;;;;38.00;30.00;;;;;;;;117397;1194;24709;-61
2023/03/23 08:20:59;;;;;;;;;33.00;26.00;;;;;;;;117412;1180;25082;-61
2023/03/23 08:23:26;;;;;;;;;47.00;36.00;;;;;;;;117462;1180;25403;-62
2023/03/23 08:25:53;;;;;;;;;42.00;33.00;;;;;;;;117440;1180;24963;-62
2023/03/23 08:28:20;;;;;;;;;45.00;32.00;;;;;;;;117472;1182;25512;-61
2023/03/23 08:30:48;;;;;;;;;36.67;32.00;;;;;;;;117360;1192;25119;-62
2023/03/23 08:33:16;;;;;;;;;32.00;30.00;;;;;;;;117395;1183;25572;-61
2023/03/23 08:35:44;;;;;;;;;31.00;26.00;;;;;;;;117413;1194;25139;-61
2023/03/23 08:38:12;;;;;;;;;39.00;33.00;;;;;;;;117428;1184;25669;-61
2023/03/23 08:40:39;;;;;;;;;28.00;26.00;;;;;;;;117416;1180;25104;-61
2023/03/23 08:43:07;;;;;;;;;35.50;31.50;;;;;;;;117358;1194;25426;-59
2023/03/23 08:45:34;;;;;;;;;34.50;27.50;;;;;;;;117309;1182;25195;-59
2023/03/23 08:48:01;;;;;;;;;38.00;30.00;;;;;;;;117383;1180;25144;-59
2023/03/23 08:50:30;;;;;;;;;36.67;26.33;;;;;;;;117385;1181;25071;-58
2023/03/23 08:52:58;;;;;;;;;36.33;29.33;;;;;;;;117390;1193;24719;-58
2023/03/23 08:55:26;;;;;;;;;41.50;33.00;;;;;;;;117395;1180;25060;-58
2023/03/23 08:57:53;;;;;;;;;35.50;26.00;;;;;;;;117386;1180;24872;-59
2023/03/23 09:00:23;;;;;;;;;33.00;29.00;;;;;;;;117407;1194;25768;-58
2023/03/23 09:02:52;;;;;;;;;35.00;32.00;;;;;;;;117406;1180;24726;-60
2023/03/23 09:05:26;;;;;;;;;34.00;30.00;;;;;;;;117428;1180;24791;-60
2023/03/23 09:07:58;;;;;;;;;32.00;28.00;;;;;;;;117395;1186;25475;-60
2023/03/23 09:10:27;;;;;;;;;31.00;28.00;;;;;;;;117422;1184;25082;-60
2023/03/23 09:12:54;;;;;;;;;43.50;32.00;;;;;;;;117402;1183;25686;-60
2023/03/23 09:15:22;;;;;;;;;39.00;30.00;;;;;;;;117377;1180;24779;-60
2023/03/23 09:17:53;;;;;;;;;33.67;30.67;;;;;;;;117414;1184;25525;-60
2023/03/23 09:20:23;;;;;;;;;36.00;32.00;;;;;;;;117413;1194;24936;-60
2023/03/23 09:22:52;;;;;;;;;37.50;30.00;;;;;;;;117391;1185;25446;-60
2023/03/23 09:25:21;;;;;;;;;35.00;29.00;;;;;;;;117403;1181;25421;-60
2023/03/23 09:27:56;;;;;;;;;32.67;28.67;;;;;;;;117400;1194;25284;-60
2023/03/23 09:30:26;;;;;;;;;32.00;31.00;;;;;;;;117395;1180;25302;-60
2023/03/23 09:32:54;;;;;;;;;37.00;30.67;;;;;;;;117336;1181;24904;-60
2023/03/23 09:35:22;;;;;;;;;34.50;29.50;;;;;;;;117407;1181;25393;-60
2023/03/23 09:37:51;;;;;;;;;34.00;29.00;;;;;;;;117424;1181;25324;-60
2023/03/23 09:40:28;;;;;;;;;29.67;25.67;;;;;;;;117416;1183;24953;-60
2023/03/23 09:43:33;;;;;;;;;39.00;30.00;;;;;;;;117417;1194;25656;-60
2023/03/23 09:46:16;;;;;;;;;34.00;30.00;;;;;;;;117433;1181;25261;-60
2023/03/23 09:48:59;;;;;;;;;29.50;28.50;;;;;;;;117427;1180;25209;-60
2023/03/23 09:51:40;;;;;;;;;36.00;29.67;;;;;;;;117388;1181;25554;-60
2023/03/23 09:54:37;;;;;;;;;33.00;31.00;;;;;;;;117429;1181;25353;-61
2023/03/23 09:57:12;;;;;;;;;37.00;32.00;;;;;;;;117422;1181;25331;-60
2023/03/23 10:00:00;;;;;;;;;30.00;29.00;;;;;;;;117387;1183;25032;-60
2023/03/23 10:02:40;;;;;;;;;36.50;29.50;;;;;;;;117397;1183;25275;-60
2023/03/23 10:05:37;;;;;;;;;34.50;30.00;;;;;;;;117425;1182;24826;-60
2023/03/23 10:08:19;;;;;;;;;35.50;30.50;;;;;;;;117401;1188;25496;-60
2023/03/23 10:11:04;;;;;;;;;35.00;30.00;;;;;;;;117393;1194;25162;-60
2023/03/23 10:13:37;;;;;;;;;36.00;27.00;;;;;;;;117411;1184;25514;-59
2023/03/23 10:16:10;;;;;;;;;34.00;29.00;;;;;;;;117434;1184;25621;-60
2023/03/23 10:18:38;;;;;;;;;32.00;29.00;;;;;;;;117367;1182;25337;-60
2023/03/23 10:21:12;;;;;;;;;37.00;30.00;;;;;;;;117435;1180;24682;-60
2023/03/23 10:23:53;;;;;;;;;33.33;29.00;;;;;;;;117412;1180;25473;-60
2023/03/23 10:26:28;;;;;;;;;33.33;27.67;;;;;;;;117386;1194;25469;-60
2023/03/23 10:29:13;;;;;;;;;35.50;32.00;;;;;;;;117409;1184;25345;-60
2023/03/23 10:32:05;;;;;;;;;33.00;25.50;;;;;;;;117416;1180;25116;-60
2023/03/23 10:34:40;;;;;;;;;37.00;31.00;;;;;;;;117439;1183;25102;-64
2023/03/23 10:37:23;;;;;;;;;33.00;29.50;;;;;;;;117473;1181;24987;-61
2023/03/23 10:39:57;;;;;;;;;35.00;30.00;;;;;;;;117439;1183;25141;-61
2023/03/23 10:42:28;;;;;;;;;33.00;30.00;;;;;;;;117470;1180;25364;-61
2023/03/23 10:44:57;;;;;;;;;38.00;29.00;;;;;;;;117446;1181;25154;-61
2023/03/23 10:47:24;;;;;;;;;32.67;28.67;;;;;;;;117373;1194;25103;-60
2023/03/23 10:49:51;;;;;;;;;35.00;30.00;;;;;;;;117427;1180;24977;-60
2023/03/23 10:52:40;;;;;;;;;34.00;29.00;;;;;;;;117392;1194;24918;-60
2023/03/23 10:55:13;;;;;;;;;35.00;32.00;;;;;;;;117407;1180;25559;-61
2023/03/23 10:57:44;;;;;;;;;32.50;30.50;;;;;;;;117445;1180;24983;-61
2023/03/23 11:00:16;;;;;;;;;34.00;28.50;;;;;;;;117426;1190;25414;-61
2023/03/23 11:02:58;;;;;;;;;39.00;33.00;;;;;;;;117422;1193;24797;-60
2023/03/23 11:05:32;;;;;;;;;28.50;27.00;;;;;;;;117394;1180;25354;-61
2023/03/23 11:08:01;;;;;;;;;32.00;29.00;;;;;;;;117402;1180;24917;-60
2023/03/23 11:10:36;;;;;;;;;41.00;33.50;;;;;;;;117407;1194;25534;-60
2023/03/23 11:13:04;;;;;;;;;37.50;32.00;;;;;;;;117379;1180;24792;-60
2023/03/23 11:15:39;;;;;;;;;32.00;28.00;;;;;;;;117434;1194;24902;-60
2023/03/23 11:18:12;;;;;;;;;34.00;31.00;;;;;;;;117433;1180;25182;-60
2023/03/23 11:20:42;;;;;;;;;31.50;29.00;;;;;;;;117392;1181;25052;-60
2023/03/23 11:23:22;;;;;;;;;32.00;30.00;;;;;;;;117400;1194;25426;-60
2023/03/23 11:26:11;;;;;;;;;29.67;26.33;;;;;;;;117358;1181;25086;-61
2023/03/23 11:28:45;;;;;;;;;30.50;30.00;;;;;;;;117418;1186;25228;-63
2023/03/23 11:31:13;;;;;;;;;36.00;31.00;;;;;;;;117406;1181;25603;-62
2023/03/23 11:34:03;;;;;;;;;39.00;32.00;;;;;;;;117403;1180;25714;-61
2023/03/23 11:36:38;;;;;;;;;38.33;33.00;;;;;;;;117416;1180;25343;-58
2023/03/23 11:39:46;;;;;;;;;33.00;27.33;;;;;;;;117393;1194;25407;-58
2023/03/23 11:42:20;;;;;;;;;40.50;33.00;;;;;;;;117353;1190;25451;-60
2023/03/23 11:44:47;;;;;;;;;26.33;26.33;;;;;;;;117394;1187;25978;-59
2023/03/23 11:47:32;;;;;;;;;37.00;32.00;;;;;;;;117398;1180;25570;-60
2023/03/23 11:50:22;;;;;;;;;28.00;23.50;;;;;;;;117396;1187;24870;-60
2023/03/23 11:53:16;;;;;;;;;33.00;31.00;;;;;;;;117400;1194;25622;-60
2023/03/23 11:55:51;;;;;;;;;36.00;32.00;;;;;;;;117369;1180;24870;-61
2023/03/23 11:58:20;;;;;;;;;30.50;28.50;;;;;;;;117395;1187;25506;-60
2023/03/23 12:00:59;;;;;;;;;37.33;33.00;;;;;;;;117394;1190;25477;-61
2023/03/23 12:03:35;;;;;;;;;29.00;27.00;;;;;;;;117407;1181;24918;-59
2023/03/23 12:06:08;;;;;;;;;39.00;31.00;;;;;;;;117365;1189;25250;-59
2023/03/23 12:09:11;;;;;;;;;31.67;27.67;;;;;;;;117397;1194;25577;-60
2023/03/23 12:11:50;;;;;;;;;41.00;33.00;;;;;;;;117136;1194;25657;-60
2023/03/23 12:14:38;;;;;;;;;34.00;28.00;;;;;;;;117412;1181;24780;-60
2023/03/23 12:17:17;;;;;;;;;26.00;25.00;;;;;;;;117396;1180;24680;-60
2023/03/23 12:20:14;;;;;;;;;38.67;33.67;;;;;;;;117466;1180;25284;-60
2023/03/23 12:23:00;;;;;;;;;28.50;27.50;;;;;;;;117404;1181;25042;-60
2023/03/23 12:25:30;;;;;;;;;29.00;29.00;;;;;;;;117411;1182;24905;-60
2023/03/23 12:28:12;;;;;;;;;36.00;32.00;;;;;;;;117340;1189;25429;-60
2023/03/23 12:30:48;;;;;;;;;36.00;31.00;;;;;;;;117450;1193;25219;-62
2023/03/23 12:33:24;;;;;;;;;32.00;30.00;;;;;;;;117404;1180;25324;-61
2023/03/23 12:36:00;;;;;;;;;29.00;24.00;;;;;;;;117421;1181;24882;-62
2023/03/23 12:38:35;;;;;;;;;36.00;30.00;;;;;;;;117408;1181;25391;-60
2023/03/23 12:41:07;;;;;;;;;33.50;29.00;;;;;;;;117377;1194;25091;-60
2023/03/23 12:44:05;;;;;;;;;37.00;32.00;;;;;;;;117366;1187;25099;-60
2023/03/23 12:46:47;;;;;;;;;35.00;29.50;;;;;;;;117336;1181;24735;-61
2023/03/23 12:49:20;;;;;;;;;41.00;32.00;;;;;;;;117376;1194;25413;-60
2023/03/23 12:52:23;;;;;;;;;35.00;32.00;;;;;;;;117408;1186;24750;-60
2023/03/23 12:55:02;;;;;;;;;38.33;32.00;;;;;;;;117443;1194;25804;-64
2023/03/23 12:57:59;;;;;;;;;40.00;31.00;;;;;;;;117438;1181;25796;-61
2023/03/23 13:01:00;;;;;;;;;32.33;24.67;;;;;;;;117402;1180;25142;-61
2023/03/23 13:03:32;;;;;;;;;36.00;28.50;;;;;;;;117393;1183;25241;-61
2023/03/23 13:06:08;;;;;;;;;35.50;29.00;;;;;;;;117349;1194;25411;-61
2023/03/23 13:08:49;;;;;;;;;37.50;33.00;;;;;;;;117402;1193;24874;-61
2023/03/23 13:11:30;;;;;;;;;33.50;28.00;;;;;;;;117418;1180;25112;-61
2023/03/23 13:14:28;;;;;;;;;31.33;29.33;;;;;;;;117399;1184;24837;-61
2023/03/23 13:17:15;;;;;;;;;31.50;27.00;;;;;;;;117422;1194;26808;-61
2023/03/23 13:19:54;;;;;;;;;35.00;31.00;;;;;;;;117405;1180;25737;-61
2023/03/23 13:22:32;;;;;;;;;32.00;28.50;;;;;;;;117432;1194;25082;-61
2023/03/23 13:25:03;;;;;;;;;34.00;29.00;;;;;;;;117431;1194;24879;-60
2023/03/23 13:27:30;;;;;;;;;39.50;33.00;;;;;;;;117391;1184;25008;-61
2023/03/23 13:29:58;;;;;;;;;35.00;30.50;;;;;;;;117441;1183;25662;-60
2023/03/23 13:32:38;;;;;;;;;34.50;31.00;;;;;;;;117415;1193;25351;-61
2023/03/23 13:35:12;;;;;;;;;35.00;31.00;;;;;;;;117405;1182;25077;-61
2023/03/23 13:37:48;;;;;;;;;31.00;27.50;;;;;;;;117412;1184;25117;-60
2023/03/23 13:40:29;;;;;;;;;32.00;27.00;;;;;;;;117418;1184;24925;-61
2023/03/23 13:42:59;;;;;;;;;34.00;31.50;;;;;;;;117405;1182;24817;-61
2023/03/23 13:45:29;;;;;;;;;31.50;29.00;;;;;;;;117401;1182;25771;-61
2023/03/23 13:48:17;;;;;;;;;25.33;24.33;;;;;;;;117390;1182;25111;-61
2023/03/23 13:50:49;;;;;;;;;27.67;24.00;;;;;;;;117390;1194;25098;-62
2023/03/23 13:53:32;;;;;;;;;29.00;28.00;;;;;;;;117434;1189;24700;-59
2023/03/23 13:56:17;;;;;;;;;31.50;28.50;;;;;;;;117375;1181;25429;-67
2023/03/23 13:58:56;;;;;;;;;39.00;33.00;;;;;;;;117455;1180;25061;-68
2023/03/23 14:01:35;;;;;;;;;30.00;28.00;;;;;;;;117419;1193;24853;-61
2023/03/23 14:04:10;;;;;;;;;30.50;26.00;;;;;;;;117436;1194;25546;-60
2023/03/23 14:06:37;;;;;;;;;33.33;28.00;;;;;;;;117381;1181;24887;-60
2023/03/23 14:09:12;;;;;;;;;30.67;27.00;;;;;;;;117369;1194;24982;-60
2023/03/23 14:12:18;;;;;;;;;28.50;24.50;;;;;;;;117397;1180;25106;-59
2023/03/23 14:14:55;;;;;;;;;31.00;31.00;;;;;;;;117241;1183;25401;-60
2023/03/23 14:17:25;;;;;;;;;29.00;26.50;;;;;;;;117416;1180;25262;-60
2023/03/23 14:19:55;;;;;;;;;37.00;29.50;;;;;;;;117382;1194;25380;-60
2023/03/23 14:22:27;;;;;;;;;30.50;26.50;;;;;;;;117355;1180;25584;-60
2023/03/23 14:25:15;;;;;;;;;27.00;24.50;;;;;;;;117382;1180;24916;-61
2023/03/23 14:27:45;;;;;;;;;28.00;25.00;;;;;;;;117391;1190;25094;-60
2023/03/23 14:30:18;;;;;;;;;32.00;31.00;;;;;;;;117400;1180;25598;-60
2023/03/23 14:32:45;;;;;;;;;25.00;24.00;;;;;;;;117361;1181;24925;-60
2023/03/23 14:35:27;;;;;;;;;32.33;25.33;;;;;;;;117375;1181;25029;-61
2023/03/23 14:37:56;;;;;;;;;34.00;24.50;;;;;;;;117405;1181;24922;-60
2023/03/23 14:40:26;;;;;;;;;29.00;25.00;;;;;;;;117430;1185;25126;-60
2023/03/23 14:42:54;;;;;;;;;26.00;24.00;;;;;;;;117399;1187;25040;-60